createdAt,value
2018-12-31T00:03:51.350Z,70.71
2018-12-31T00:07:55.594Z,70.54
2018-12-31T00:11:59.857Z,70.63
2018-12-31T00:16:04.135Z,70.44
2018-12-31T00:20:08.403Z,70.58
2018-12-31T00:24:12.688Z,70.72
2018-12-31T00:28:16.962Z,70.58
2018-12-31T00:32:21.241Z,70.41
2018-12-31T00:36:25.537Z,69.37
2018-12-31T00:40:29.817Z,69.06
2018-12-31T00:44:34.032Z,68.44
2018-12-31T00:48:38.309Z,67.93
2018-12-31T00:52:42.598Z,67.98
2018-12-31T00:56:46.945Z,67.34
2018-12-31T01:00:51.280Z,67.62
2018-12-31T01:04:55.623Z,66.98
2018-12-31T01:08:59.915Z,66.09
2018-12-31T01:13:04.288Z,66.57
2018-12-31T01:17:08.495Z,66.10
2018-12-31T01:21:12.873Z,66.29
2018-12-31T01:25:17.119Z,66.35
2018-12-31T01:29:21.332Z,66.53
2018-12-31T01:33:25.611Z,67.02
2018-12-31T01:37:29.897Z,67.17
2018-12-31T01:41:34.163Z,67.39
2018-12-31T01:45:38.439Z,67.50
2018-12-31T01:49:42.764Z,67.62
2018-12-31T01:53:47.020Z,67.93
2018-12-31T01:57:51.274Z,67.99
2018-12-31T02:01:55.549Z,68.04
2018-12-31T02:05:59.832Z,68.10
2018-12-31T02:10:04.211Z,68.00
2018-12-31T02:14:08.444Z,67.91
2018-12-31T02:18:12.721Z,67.75
2018-12-31T02:22:16.931Z,67.66
2018-12-31T02:26:21.224Z,67.73
2018-12-31T02:30:25.453Z,67.49
2018-12-31T02:34:29.739Z,67.58
2018-12-31T02:38:34.036Z,67.63
2018-12-31T02:42:38.440Z,67.66
2018-12-31T02:46:42.709Z,67.65
2018-12-31T02:50:46.928Z,67.40
2018-12-31T02:54:51.239Z,67.30
2018-12-31T02:58:55.491Z,67.32
2018-12-31T03:02:59.768Z,67.25
2018-12-31T03:07:04.044Z,67.02
2018-12-31T03:11:08.305Z,66.39
2018-12-31T03:15:12.609Z,66.32
2018-12-31T03:19:16.871Z,66.58
2018-12-31T03:23:21.195Z,66.28
2018-12-31T03:27:25.446Z,66.47
2018-12-31T03:31:29.713Z,66.69
2018-12-31T03:35:34.033Z,66.85
2018-12-31T03:39:38.333Z,67.05
2018-12-31T03:43:42.596Z,67.48
2018-12-31T03:47:46.901Z,67.68
2018-12-31T03:51:51.202Z,67.70
2018-12-31T03:55:55.484Z,67.48
2018-12-31T03:59:59.839Z,67.59
2018-12-31T04:04:04.249Z,67.60
2018-12-31T04:08:08.551Z,67.80
2018-12-31T04:12:12.830Z,67.86
2018-12-31T04:16:17.104Z,68.00
2018-12-31T04:20:21.383Z,68.12
2018-12-31T04:24:25.721Z,68.15
2018-12-31T04:28:30.033Z,68.13
2018-12-31T04:32:34.299Z,68.03
2018-12-31T04:36:38.566Z,68.07
2018-12-31T04:40:49.614Z,68.21
2018-12-31T04:44:53.897Z,68.32
2018-12-31T04:48:58.188Z,68.31
2018-12-31T04:53:02.503Z,68.35
2018-12-31T04:57:06.763Z,68.41
2018-12-31T05:01:11.044Z,68.48
2018-12-31T05:05:15.288Z,68.12
2018-12-31T05:09:19.586Z,68.41
2018-12-31T05:13:23.795Z,68.20
2018-12-31T05:17:28.075Z,68.25
2018-12-31T05:21:32.327Z,68.19
2018-12-31T05:25:36.568Z,68.12
2018-12-31T05:29:40.841Z,68.17
2018-12-31T05:33:45.096Z,68.08
2018-12-31T05:37:49.324Z,68.01
2018-12-31T05:41:53.631Z,68.17
2018-12-31T05:45:57.896Z,67.80
2018-12-31T05:50:02.179Z,67.73
2018-12-31T05:54:06.447Z,67.48
2018-12-31T05:58:10.690Z,67.23
2018-12-31T06:02:14.958Z,67.14
2018-12-31T06:06:19.196Z,67.02
2018-12-31T06:10:23.509Z,66.62
2018-12-31T06:14:27.797Z,66.63
2018-12-31T06:18:32.068Z,66.29
2018-12-31T06:22:36.405Z,66.34
2018-12-31T06:26:40.626Z,66.12
2018-12-31T06:30:44.922Z,65.75
2018-12-31T06:34:49.199Z,65.87
2018-12-31T06:38:53.822Z,65.84
2018-12-31T06:42:58.072Z,65.97
2018-12-31T06:47:02.330Z,65.72
2018-12-31T06:51:06.622Z,65.55
2018-12-31T06:55:10.821Z,65.82
2018-12-31T06:59:15.149Z,65.79
2018-12-31T07:03:19.432Z,65.58
2018-12-31T07:07:23.721Z,65.25
2018-12-31T07:11:27.940Z,65.68
2018-12-31T07:15:32.208Z,65.71
2018-12-31T07:19:36.505Z,65.64
2018-12-31T07:23:40.713Z,65.63
2018-12-31T07:27:45.002Z,65.25
2018-12-31T07:31:49.218Z,65.50
2018-12-31T07:35:53.505Z,65.16
2018-12-31T07:39:57.756Z,65.60
2018-12-31T07:44:02.055Z,65.25
2018-12-31T07:48:06.284Z,65.20
2018-12-31T07:52:10.602Z,65.34
2018-12-31T07:56:14.874Z,65.24
2018-12-31T08:00:19.159Z,65.32
2018-12-31T08:04:23.488Z,65.09
2018-12-31T08:08:27.729Z,65.10
2018-12-31T08:12:32.002Z,65.36
2018-12-31T08:16:36.279Z,65.11
2018-12-31T08:20:40.550Z,65.13
2018-12-31T08:24:44.781Z,65.10
2018-12-31T08:28:49.120Z,65.22
2018-12-31T08:32:53.344Z,65.27
2018-12-31T08:36:57.619Z,64.73
2018-12-31T08:41:01.896Z,65.19
2018-12-31T08:45:06.666Z,65.30
2018-12-31T08:49:10.903Z,65.30
2018-12-31T08:53:15.226Z,65.25
2018-12-31T08:57:19.508Z,65.40
2018-12-31T09:01:23.786Z,65.31
2018-12-31T09:05:28.066Z,65.01
2018-12-31T09:09:32.300Z,65.39
2018-12-31T09:13:36.580Z,65.42
2018-12-31T09:17:40.876Z,65.28
2018-12-31T09:21:45.162Z,65.14
2018-12-31T09:25:49.429Z,65.34
2018-12-31T09:29:53.721Z,65.66
2018-12-31T09:38:07.640Z,65.23
2018-12-31T09:42:11.928Z,64.70
2018-12-31T09:46:16.152Z,65.08
2018-12-31T09:50:20.445Z,64.77
2018-12-31T09:54:24.729Z,64.67
2018-12-31T09:58:29.001Z,64.49
2018-12-31T10:02:33.207Z,64.51
2018-12-31T10:06:37.490Z,64.48
2018-12-31T10:10:41.743Z,64.40
2018-12-31T10:14:46.045Z,64.64
2018-12-31T10:18:50.303Z,64.27
2018-12-31T10:22:54.538Z,64.31
2018-12-31T10:26:58.791Z,63.90
2018-12-31T10:31:02.997Z,63.92
2018-12-31T10:35:07.306Z,64.01
2018-12-31T10:39:11.571Z,63.94
2018-12-31T10:43:15.779Z,63.79
2018-12-31T10:47:20.132Z,63.68
2018-12-31T10:51:24.568Z,62.71
2018-12-31T10:55:28.865Z,62.28
2018-12-31T10:59:33.144Z,62.29
2018-12-31T11:03:37.412Z,62.46
2018-12-31T11:07:41.701Z,62.42
2018-12-31T11:11:45.960Z,61.41
2018-12-31T11:15:50.236Z,61.79
2018-12-31T11:20:14.892Z,62.33
2018-12-31T11:28:30.573Z,61.26
2018-12-31T11:32:34.781Z,61.34
2018-12-31T11:36:39.071Z,60.64
2018-12-31T11:40:43.361Z,60.62
2018-12-31T11:44:47.590Z,60.22
2018-12-31T11:48:51.871Z,59.12
2018-12-31T11:52:56.135Z,60.01
2018-12-31T11:57:00.393Z,59.04
2018-12-31T12:01:04.664Z,58.97
2018-12-31T12:05:08.930Z,59.21
2018-12-31T12:09:13.186Z,58.06
2018-12-31T12:13:17.462Z,57.75
2018-12-31T12:17:21.940Z,56.56
2018-12-31T12:21:26.228Z,56.94
2018-12-31T12:25:30.750Z,57.68
2018-12-31T12:29:35.041Z,58.03
2018-12-31T12:33:39.304Z,57.87
2018-12-31T12:37:48.498Z,57.60
2018-12-31T12:41:49.819Z,58.08
2018-12-31T12:45:54.135Z,57.72
2018-12-31T12:49:58.421Z,57.18
2018-12-31T12:54:02.698Z,56.68
2018-12-31T12:58:06.969Z,57.36
2018-12-31T13:02:11.248Z,56.87
2018-12-31T13:06:15.530Z,57.06
2018-12-31T13:10:21.497Z,57.33
2018-12-31T13:14:25.798Z,57.54
2018-12-31T13:18:30.054Z,57.67
2018-12-31T13:22:34.331Z,57.36
2018-12-31T13:26:43.590Z,57.00
2018-12-31T13:30:44.594Z,56.67
2018-12-31T13:34:48.884Z,57.08
2018-12-31T13:38:53.179Z,56.22
2018-12-31T13:42:57.443Z,56.42
2018-12-31T13:47:01.790Z,57.06
2018-12-31T13:51:06.413Z,57.00
2018-12-31T13:55:10.723Z,56.92
2018-12-31T13:59:14.993Z,57.47
2018-12-31T14:03:19.757Z,57.28
2018-12-31T14:07:25.259Z,57.55
2018-12-31T14:11:29.519Z,58.09
2018-12-31T14:15:33.800Z,57.78
2018-12-31T14:19:38.067Z,57.55
2018-12-31T14:23:42.350Z,58.12
2018-12-31T14:27:46.620Z,58.12
2018-12-31T14:31:50.895Z,58.30
2018-12-31T14:35:55.098Z,57.33
2018-12-31T14:39:59.349Z,58.18
2018-12-31T14:44:03.572Z,58.19
2018-12-31T14:48:08.169Z,57.92
2018-12-31T14:52:12.447Z,58.21
2018-12-31T14:56:16.745Z,58.26
2018-12-31T15:00:20.972Z,57.91
2018-12-31T15:04:25.256Z,58.44
2018-12-31T15:08:29.494Z,58.69
2018-12-31T15:12:33.802Z,58.75
2018-12-31T15:16:38.086Z,58.79
2018-12-31T15:20:42.359Z,58.96
2018-12-31T15:24:46.650Z,59.20
2018-12-31T15:28:50.968Z,59.40
2018-12-31T15:32:55.219Z,59.55
2018-12-31T15:37:01.241Z,59.73
2018-12-31T15:41:05.517Z,59.84
2018-12-31T15:45:09.782Z,59.79
2018-12-31T15:49:14.019Z,59.66
2018-12-31T15:53:18.323Z,59.58
2018-12-31T15:57:24.404Z,59.59
2018-12-31T16:01:28.734Z,59.69
2018-12-31T16:05:33.049Z,59.70
2018-12-31T16:09:37.330Z,59.81
2018-12-31T16:13:41.575Z,59.89
2018-12-31T16:17:45.903Z,59.95
2018-12-31T16:21:50.159Z,60.66
2018-12-31T16:25:54.488Z,60.58
2018-12-31T16:29:58.761Z,60.52
2018-12-31T16:34:03.017Z,60.54
2018-12-31T16:38:07.262Z,60.60
2018-12-31T16:42:11.490Z,60.75
2018-12-31T16:46:15.785Z,60.83
2018-12-31T16:50:20.032Z,60.89
2018-12-31T16:54:24.294Z,60.97
2018-12-31T16:58:28.624Z,61.07
2018-12-31T17:02:32.858Z,61.06
2018-12-31T17:06:37.159Z,61.01
2018-12-31T17:10:41.407Z,61.03
2018-12-31T17:14:45.735Z,61.04
2018-12-31T17:18:50.372Z,61.05
2018-12-31T17:22:54.783Z,61.32
2018-12-31T17:26:59.029Z,61.58
2018-12-31T17:31:03.297Z,63.21
2018-12-31T17:35:07.587Z,62.73
2018-12-31T17:39:11.812Z,62.53
2018-12-31T17:43:16.337Z,62.40
2018-12-31T17:47:20.663Z,62.32
2018-12-31T17:51:24.888Z,62.36
2018-12-31T17:55:29.154Z,62.37
2018-12-31T17:59:33.482Z,62.42
2018-12-31T18:03:37.757Z,62.43
2018-12-31T18:07:42.011Z,62.50
2018-12-31T18:11:46.321Z,62.59
2018-12-31T18:15:50.534Z,62.65
2018-12-31T18:19:55.282Z,62.62
2018-12-31T18:23:59.555Z,62.89
2018-12-31T18:32:15.081Z,63.50
2018-12-31T18:36:19.349Z,63.70
2018-12-31T18:40:23.582Z,63.89
2018-12-31T18:44:27.933Z,63.93
2018-12-31T18:48:32.189Z,63.87
2018-12-31T18:52:38.463Z,64.08
2018-12-31T18:56:42.692Z,64.12
2018-12-31T19:00:47.671Z,64.36
2018-12-31T19:04:51.882Z,64.71
2018-12-31T19:08:56.162Z,64.76
2018-12-31T19:13:02.190Z,64.76
2018-12-31T19:17:06.467Z,64.77
2018-12-31T19:21:10.765Z,64.81
2018-12-31T19:25:15.047Z,64.86
2018-12-31T19:29:19.329Z,64.93
2018-12-31T19:33:23.626Z,65.28
2018-12-31T19:37:29.849Z,65.51
2018-12-31T19:41:33.922Z,65.86
2018-12-31T19:45:38.199Z,66.07
2018-12-31T19:49:42.644Z,66.58
2018-12-31T19:53:47.011Z,66.74
2018-12-31T19:57:51.288Z,67.08
2018-12-31T20:01:56.704Z,67.25
2018-12-31T20:06:01.535Z,67.57
2018-12-31T20:10:06.244Z,67.46
2018-12-31T20:14:10.458Z,67.55
2018-12-31T20:18:14.728Z,67.85
2018-12-31T20:22:19.680Z,68.41
2018-12-31T20:26:23.991Z,68.42
2018-12-31T20:30:28.269Z,68.45
2018-12-31T20:34:34.274Z,69.16
2018-12-31T20:38:38.488Z,69.31
2018-12-31T20:42:42.801Z,69.14
2018-12-31T20:46:47.100Z,69.34
2018-12-31T20:50:51.369Z,69.60
2018-12-31T20:54:55.630Z,69.77
2018-12-31T20:59:18.892Z,69.84
2018-12-31T21:03:23.204Z,70.08
2018-12-31T21:07:27.470Z,70.34
2018-12-31T21:11:31.738Z,70.20
2018-12-31T21:15:36.062Z,70.39
2018-12-31T21:19:40.390Z,70.46
2018-12-31T21:23:44.709Z,70.67
2018-12-31T21:27:49.026Z,70.82
2018-12-31T21:31:53.314Z,71.06
2018-12-31T21:35:57.619Z,71.20
2018-12-31T21:40:01.883Z,71.18
2018-12-31T21:44:06.203Z,71.33
2018-12-31T21:48:10.437Z,71.80
2018-12-31T21:52:14.732Z,71.76
2018-12-31T21:56:20.687Z,71.88
2018-12-31T22:00:24.957Z,71.93
2018-12-31T22:04:29.257Z,71.98
2018-12-31T22:08:33.464Z,71.89
2018-12-31T22:12:38.057Z,71.94
2018-12-31T22:16:44.015Z,72.04
2018-12-31T22:20:48.292Z,72.11
2018-12-31T22:24:52.591Z,72.17
2018-12-31T22:28:56.885Z,72.62
2018-12-31T22:33:01.181Z,72.27
2018-12-31T22:37:07.195Z,72.42
2018-12-31T22:41:11.432Z,72.38
2018-12-31T22:45:15.723Z,72.37
2018-12-31T22:49:19.945Z,72.33
2018-12-31T22:53:24.208Z,72.14
2018-12-31T22:57:28.649Z,71.89
2018-12-31T23:01:33.537Z,71.82
2018-12-31T23:05:39.925Z,71.73
2018-12-31T23:09:44.209Z,71.57
2018-12-31T23:13:48.503Z,71.64
2018-12-31T23:17:52.955Z,71.66
2018-12-31T23:21:57.201Z,71.64
2018-12-31T23:26:01.575Z,71.65
2018-12-31T23:30:07.144Z,71.68
2018-12-31T23:34:11.445Z,71.75
2018-12-31T23:38:15.746Z,71.69
2018-12-31T23:42:20.001Z,71.65
2018-12-31T23:46:24.256Z,71.41
2018-12-31T23:50:28.527Z,71.25
2018-12-31T23:54:32.774Z,70.95
2018-12-31T23:58:37.128Z,70.84
